Scappoose, OR (97056)

01:31 PDT le 28 septembre 2016 (GMT -0700)
4th & E.M. Watts | | Change Station

Alt. 62 ft 45.75 °N, 122.88 °W | Updated 35 seconds ago

Clear
Ciel dégagé
58.6 ° F
Paraît 58.6 ° F
N
4.2
Vent Variable Vent de NNE

Aujourd'hui
Haut(e) -- | Bas -- ° F
--% Risque de précip.
Hier
Haut(e) -- | Bas -- ° F
Precip. -- pouce
Pression 30.05 pouce
Visibilité 10.0 Miles terrestres
Nuages Ciel dégagé
Point de rosée 42 ° F
Humidité 55%
Précipitations 0.00 pouce
Profondeur de la couche neigeuse Non disponible.
7:07 AM 6:56 PM
Lune descendante, 7% visible
METAR KSPB 280753Z AUTO 35007KT 10SM CLR 15/03 A3005 RMK AO2 SLP175 T01500033 402390150
Pression 30.05 pouce
Visibilité 10.0 Miles terrestres
Nuages Ciel dégagé
Point de rosée 42 ° F
Humidité 55%
Précipitations 0.00 pouce
Profondeur de la couche neigeuse Non disponible.
7:07 AM 6:56 PM
Lune descendante, 7% visible
METAR KSPB 280753Z AUTO 35007KT 10SM CLR 15/03 A3005 RMK AO2 SLP175 T01500033 402390150

10-Day Weather Forecast

Almanac

Astronomie

Sep. 28, 2016 Lever Coucher
Temps réel
Crépuscule civil
Crépuscule nautique
Crépuscule astronomique
Lune
Durée de lumière visible
Longueur du jour
Tomorrow will be .
, % of the Moon is Illuminated

Extrêmes aujourd'hui

State Highs State Lows

Community

WunderPhotos

Upload Photos

1,942,216 Photos téléchargées !

WunderBlog® & News

Nearby

Qualité de l'air

  Qualité de l'air Indice de la qualité de l'air Polluant
Not available.

Épaisseur de neige

Station Depth Altitude

Activité sismique

Ville Distance Mag. Time & Date
Minimum magnitude displayed is 2.5.

Températures des eaux côtières

Lieu Température

Stations

Stations météo à proximité

Emplacement de la station Température Refroidissement éolien Point de rosée Humidité Vent Precip. Alt. Mise à jour Type
                   

Watches & Warnings

There are currently no watches in effect.